sensor_id;sensor_type;location;lat;lon;timestamp;P1;durP1;ratioP1;P2;durP2;ratioP2
38972;SDS011;25333;50.762;4.470;2023-07-16T00:00:50;4.10;;;1.17;;
38972;SDS011;25333;50.762;4.470;2023-07-16T00:03:16;3.65;;;1.45;;
38972;SDS011;25333;50.762;4.470;2023-07-16T00:05:42;4.03;;;1.27;;
38972;SDS011;25333;50.762;4.470;2023-07-16T00:08:07;3.17;;;0.80;;
38972;SDS011;25333;50.762;4.470;2023-07-16T00:10:34;4.00;;;1.40;;
38972;SDS011;25333;50.762;4.470;2023-07-16T00:13:03;4.13;;;1.30;;
38972;SDS011;25333;50.762;4.470;2023-07-16T00:15:29;4.45;;;1.15;;
38972;SDS011;25333;50.762;4.470;2023-07-16T00:17:55;4.25;;;1.33;;
38972;SDS011;25333;50.762;4.470;2023-07-16T00:20:20;3.60;;;0.88;;
38972;SDS011;25333;50.762;4.470;2023-07-16T00:22:48;4.65;;;0.93;;
38972;SDS011;25333;50.762;4.470;2023-07-16T00:25:14;3.03;;;1.27;;
38972;SDS011;25333;50.762;4.470;2023-07-16T00:27:40;4.93;;;1.42;;
38972;SDS011;25333;50.762;4.470;2023-07-16T00:30:05;3.83;;;1.10;;
38972;SDS011;25333;50.762;4.470;2023-07-16T00:32:32;3.97;;;0.75;;
38972;SDS011;25333;50.762;4.470;2023-07-16T00:34:57;3.93;;;1.07;;
38972;SDS011;25333;50.762;4.470;2023-07-16T00:37:23;3.85;;;1.08;;
38972;SDS011;25333;50.762;4.470;2023-07-16T00:39:49;4.53;;;1.20;;
38972;SDS011;25333;50.762;4.470;2023-07-16T00:42:14;4.73;;;1.40;;
38972;SDS011;25333;50.762;4.470;2023-07-16T00:44:40;7.23;;;1.17;;
38972;SDS011;25333;50.762;4.470;2023-07-16T00:47:06;5.72;;;1.35;;
38972;SDS011;25333;50.762;4.470;2023-07-16T00:49:31;5.38;;;1.05;;
38972;SDS011;25333;50.762;4.470;2023-07-16T00:51:58;4.22;;;0.90;;
38972;SDS011;25333;50.762;4.470;2023-07-16T00:54:25;4.93;;;1.05;;
38972;SDS011;25333;50.762;4.470;2023-07-16T00:56:51;3.85;;;0.98;;
38972;SDS011;25333;50.762;4.470;2023-07-16T00:59:17;11.07;;;1.77;;
38972;SDS011;25333;50.762;4.470;2023-07-16T01:01:43;3.58;;;1.30;;
38972;SDS011;25333;50.762;4.470;2023-07-16T01:04:08;4.32;;;0.93;;
38972;SDS011;25333;50.762;4.470;2023-07-16T01:06:41;4.32;;;0.90;;
38972;SDS011;25333;50.762;4.470;2023-07-16T01:11:42;3.95;;;1.17;;
38972;SDS011;25333;50.762;4.470;2023-07-16T01:14:08;5.03;;;1.35;;
38972;SDS011;25333;50.762;4.470;2023-07-16T01:16:35;4.40;;;1.23;;
38972;SDS011;25333;50.762;4.470;2023-07-16T01:19:01;6.78;;;1.60;;
38972;SDS011;25333;50.762;4.470;2023-07-16T01:30:10;5.03;;;1.38;;
38972;SDS011;25333;50.762;4.470;2023-07-16T01:32:40;7.28;;;1.27;;
38972;SDS011;25333;50.762;4.470;2023-07-16T01:35:06;6.72;;;1.48;;
38972;SDS011;25333;50.762;4.470;2023-07-16T01:37:34;3.88;;;1.40;;
38972;SDS011;25333;50.762;4.470;2023-07-16T01:39:59;5.17;;;1.17;;
38972;SDS011;25333;50.762;4.470;2023-07-16T01:42:26;3.80;;;1.25;;
38972;SDS011;25333;50.762;4.470;2023-07-16T01:44:51;4.97;;;1.37;;
38972;SDS011;25333;50.762;4.470;2023-07-16T01:47:39;5.73;;;1.60;;
38972;SDS011;25333;50.762;4.470;2023-07-16T01:50:12;3.40;;;1.17;;
38972;SDS011;25333;50.762;4.470;2023-07-16T01:52:38;4.20;;;1.23;;
38972;SDS011;25333;50.762;4.470;2023-07-16T01:55:04;5.57;;;1.90;;
38972;SDS011;25333;50.762;4.470;2023-07-16T01:57:30;6.35;;;1.25;;
38972;SDS011;25333;50.762;4.470;2023-07-16T01:59:55;6.77;;;1.93;;
38972;SDS011;25333;50.762;4.470;2023-07-16T02:02:21;5.53;;;1.50;;
38972;SDS011;25333;50.762;4.470;2023-07-16T02:04:47;5.82;;;1.88;;
38972;SDS011;25333;50.762;4.470;2023-07-16T02:07:12;5.97;;;2.27;;
38972;SDS011;25333;50.762;4.470;2023-07-16T02:09:38;6.13;;;2.20;;
38972;SDS011;25333;50.762;4.470;2023-07-16T02:12:05;9.10;;;2.28;;
38972;SDS011;25333;50.762;4.470;2023-07-16T02:14:31;6.87;;;2.30;;
38972;SDS011;25333;50.762;4.470;2023-07-16T02:16:57;5.57;;;1.80;;
38972;SDS011;25333;50.762;4.470;2023-07-16T02:19:22;5.00;;;2.38;;
38972;SDS011;25333;50.762;4.470;2023-07-16T02:21:48;7.47;;;2.43;;
38972;SDS011;25333;50.762;4.470;2023-07-16T02:24:14;5.70;;;2.33;;
38972;SDS011;25333;50.762;4.470;2023-07-16T02:26:39;6.90;;;2.92;;
38972;SDS011;25333;50.762;4.470;2023-07-16T02:29:05;6.43;;;2.35;;
38972;SDS011;25333;50.762;4.470;2023-07-16T02:31:33;6.45;;;2.90;;
38972;SDS011;25333;50.762;4.470;2023-07-16T02:33:59;6.22;;;2.53;;
38972;SDS011;25333;50.762;4.470;2023-07-16T02:36:25;10.33;;;2.47;;
38972;SDS011;25333;50.762;4.470;2023-07-16T02:38:51;8.50;;;3.20;;
38972;SDS011;25333;50.762;4.470;2023-07-16T02:41:16;4.75;;;2.22;;
38972;SDS011;25333;50.762;4.470;2023-07-16T02:43:42;7.90;;;2.25;;
38972;SDS011;25333;50.762;4.470;2023-07-16T02:46:10;6.65;;;3.10;;
38972;SDS011;25333;50.762;4.470;2023-07-16T02:48:35;6.13;;;2.10;;
38972;SDS011;25333;50.762;4.470;2023-07-16T02:51:01;4.80;;;1.75;;
38972;SDS011;25333;50.762;4.470;2023-07-16T02:53:27;7.78;;;2.75;;
38972;SDS011;25333;50.762;4.470;2023-07-16T02:55:52;9.33;;;2.47;;
38972;SDS011;25333;50.762;4.470;2023-07-16T02:58:18;6.68;;;2.92;;
38972;SDS011;25333;50.762;4.470;2023-07-16T03:00:43;4.03;;;1.85;;
38972;SDS011;25333;50.762;4.470;2023-07-16T03:03:09;6.73;;;1.97;;
38972;SDS011;25333;50.762;4.470;2023-07-16T03:05:35;5.10;;;2.50;;
38972;SDS011;25333;50.762;4.470;2023-07-16T03:08:00;6.30;;;2.20;;
38972;SDS011;25333;50.762;4.470;2023-07-16T03:10:26;6.18;;;2.97;;
38972;SDS011;25333;50.762;4.470;2023-07-16T03:12:52;6.90;;;2.77;;
38972;SDS011;25333;50.762;4.470;2023-07-16T03:15:18;7.18;;;3.38;;
38972;SDS011;25333;50.762;4.470;2023-07-16T03:17:44;5.93;;;2.67;;
38972;SDS011;25333;50.762;4.470;2023-07-16T03:20:09;6.63;;;2.67;;
38972;SDS011;25333;50.762;4.470;2023-07-16T03:22:35;9.23;;;3.22;;
38972;SDS011;25333;50.762;4.470;2023-07-16T03:25:01;7.97;;;2.65;;
38972;SDS011;25333;50.762;4.470;2023-07-16T03:27:27;7.32;;;2.38;;
38972;SDS011;25333;50.762;4.470;2023-07-16T03:29:53;7.57;;;2.53;;
38972;SDS011;25333;50.762;4.470;2023-07-16T03:32:19;6.60;;;2.30;;
38972;SDS011;25333;50.762;4.470;2023-07-16T03:34:45;8.27;;;3.40;;
38972;SDS011;25333;50.762;4.470;2023-07-16T03:37:10;7.40;;;2.72;;
38972;SDS011;25333;50.762;4.470;2023-07-16T03:39:36;6.53;;;2.50;;
38972;SDS011;25333;50.762;4.470;2023-07-16T03:42:01;7.37;;;3.13;;
38972;SDS011;25333;50.762;4.470;2023-07-16T03:44:28;8.77;;;3.17;;
38972;SDS011;25333;50.762;4.470;2023-07-16T03:46:54;9.02;;;3.70;;
38972;SDS011;25333;50.762;4.470;2023-07-16T03:49:20;10.07;;;3.07;;
38972;SDS011;25333;50.762;4.470;2023-07-16T03:51:45;8.05;;;2.55;;
38972;SDS011;25333;50.762;4.470;2023-07-16T03:54:11;6.30;;;2.90;;
38972;SDS011;25333;50.762;4.470;2023-07-16T03:56:36;6.40;;;2.58;;
38972;SDS011;25333;50.762;4.470;2023-07-16T03:59:02;9.77;;;2.80;;
38972;SDS011;25333;50.762;4.470;2023-07-16T04:01:28;12.73;;;3.77;;
38972;SDS011;25333;50.762;4.470;2023-07-16T04:03:53;8.10;;;3.35;;
38972;SDS011;25333;50.762;4.470;2023-07-16T04:06:19;9.23;;;3.67;;
38972;SDS011;25333;50.762;4.470;2023-07-16T04:08:44;8.40;;;3.30;;
38972;SDS011;25333;50.762;4.470;2023-07-16T04:11:10;8.80;;;3.33;;
38972;SDS011;25333;50.762;4.470;2023-07-16T04:13:36;8.98;;;3.45;;
38972;SDS011;25333;50.762;4.470;2023-07-16T04:16:01;6.30;;;2.88;;
38972;SDS011;25333;50.762;4.470;2023-07-16T04:18:27;7.40;;;3.70;;
38972;SDS011;25333;50.762;4.470;2023-07-16T04:20:53;10.43;;;3.83;;
38972;SDS011;25333;50.762;4.470;2023-07-16T04:23:19;7.68;;;2.95;;
38972;SDS011;25333;50.762;4.470;2023-07-16T04:25:45;5.97;;;2.88;;
38972;SDS011;25333;50.762;4.470;2023-07-16T04:28:11;7.18;;;3.42;;
38972;SDS011;25333;50.762;4.470;2023-07-16T04:30:37;6.25;;;3.70;;
38972;SDS011;25333;50.762;4.470;2023-07-16T04:33:03;5.75;;;2.90;;
38972;SDS011;25333;50.762;4.470;2023-07-16T04:35:29;8.02;;;3.53;;
38972;SDS011;25333;50.762;4.470;2023-07-16T04:37:55;7.82;;;4.03;;
38972;SDS011;25333;50.762;4.470;2023-07-16T04:40:21;7.30;;;3.50;;
38972;SDS011;25333;50.762;4.470;2023-07-16T04:42:46;9.30;;;4.25;;
38972;SDS011;25333;50.762;4.470;2023-07-16T04:45:12;7.72;;;2.95;;
38972;SDS011;25333;50.762;4.470;2023-07-16T04:47:38;9.65;;;3.45;;
38972;SDS011;25333;50.762;4.470;2023-07-16T04:50:04;5.97;;;3.58;;
38972;SDS011;25333;50.762;4.470;2023-07-16T04:52:30;9.93;;;3.83;;
38972;SDS011;25333;50.762;4.470;2023-07-16T04:54:56;8.00;;;4.33;;
38972;SDS011;25333;50.762;4.470;2023-07-16T04:57:21;7.30;;;4.07;;
38972;SDS011;25333;50.762;4.470;2023-07-16T04:59:47;10.03;;;4.33;;
38972;SDS011;25333;50.762;4.470;2023-07-16T05:02:12;9.10;;;4.10;;
38972;SDS011;25333;50.762;4.470;2023-07-16T05:04:40;9.75;;;4.30;;
38972;SDS011;25333;50.762;4.470;2023-07-16T05:07:07;9.10;;;4.00;;
38972;SDS011;25333;50.762;4.470;2023-07-16T05:09:32;12.03;;;5.17;;
38972;SDS011;25333;50.762;4.470;2023-07-16T05:11:58;9.77;;;4.22;;
38972;SDS011;25333;50.762;4.470;2023-07-16T05:14:25;8.85;;;3.90;;
38972;SDS011;25333;50.762;4.470;2023-07-16T05:16:52;7.60;;;4.32;;
38972;SDS011;25333;50.762;4.470;2023-07-16T05:19:17;7.13;;;4.03;;
38972;SDS011;25333;50.762;4.470;2023-07-16T05:21:43;8.77;;;4.78;;
38972;SDS011;25333;50.762;4.470;2023-07-16T05:24:08;8.87;;;4.37;;
38972;SDS011;25333;50.762;4.470;2023-07-16T05:26:34;9.17;;;4.13;;
38972;SDS011;25333;50.762;4.470;2023-07-16T05:29:00;8.07;;;3.63;;
38972;SDS011;25333;50.762;4.470;2023-07-16T05:31:25;8.38;;;4.28;;
38972;SDS011;25333;50.762;4.470;2023-07-16T05:33:51;10.35;;;3.83;;
38972;SDS011;25333;50.762;4.470;2023-07-16T05:36:17;8.87;;;4.63;;
38972;SDS011;25333;50.762;4.470;2023-07-16T05:38:42;9.52;;;4.35;;
38972;SDS011;25333;50.762;4.470;2023-07-16T05:41:08;12.27;;;4.90;;
38972;SDS011;25333;50.762;4.470;2023-07-16T05:43:34;11.15;;;4.32;;
38972;SDS011;25333;50.762;4.470;2023-07-16T05:45:59;13.70;;;5.10;;
38972;SDS011;25333;50.762;4.470;2023-07-16T05:48:25;8.23;;;3.97;;
38972;SDS011;25333;50.762;4.470;2023-07-16T05:50:50;10.95;;;5.00;;
38972;SDS011;25333;50.762;4.470;2023-07-16T05:53:16;10.05;;;4.78;;
38972;SDS011;25333;50.762;4.470;2023-07-16T05:55:42;10.18;;;5.25;;
38972;SDS011;25333;50.762;4.470;2023-07-16T05:58:08;6.73;;;3.90;;
38972;SDS011;25333;50.762;4.470;2023-07-16T06:00:34;12.32;;;4.82;;
38972;SDS011;25333;50.762;4.470;2023-07-16T06:03:01;9.82;;;4.15;;
38972;SDS011;25333;50.762;4.470;2023-07-16T06:05:29;11.77;;;5.18;;
38972;SDS011;25333;50.762;4.470;2023-07-16T06:07:59;10.55;;;4.95;;
38972;SDS011;25333;50.762;4.470;2023-07-16T06:10:25;8.82;;;4.28;;
38972;SDS011;25333;50.762;4.470;2023-07-16T06:12:51;10.17;;;4.73;;
38972;SDS011;25333;50.762;4.470;2023-07-16T06:15:17;9.60;;;5.05;;
38972;SDS011;25333;50.762;4.470;2023-07-16T06:17:42;7.65;;;4.53;;
38972;SDS011;25333;50.762;4.470;2023-07-16T06:20:08;9.88;;;4.93;;
38972;SDS011;25333;50.762;4.470;2023-07-16T06:22:34;11.05;;;6.00;;
38972;SDS011;25333;50.762;4.470;2023-07-16T06:25:00;10.73;;;5.10;;
38972;SDS011;25333;50.762;4.470;2023-07-16T06:27:25;9.07;;;5.18;;
38972;SDS011;25333;50.762;4.470;2023-07-16T06:29:52;7.88;;;4.88;;
38972;SDS011;25333;50.762;4.470;2023-07-16T06:32:18;12.07;;;5.15;;
38972;SDS011;25333;50.762;4.470;2023-07-16T06:34:43;10.05;;;5.22;;
38972;SDS011;25333;50.762;4.470;2023-07-16T06:37:09;7.90;;;4.17;;
38972;SDS011;25333;50.762;4.470;2023-07-16T06:39:35;9.87;;;5.60;;
38972;SDS011;25333;50.762;4.470;2023-07-16T06:42:00;12.80;;;5.70;;
38972;SDS011;25333;50.762;4.470;2023-07-16T06:44:26;8.10;;;4.40;;
38972;SDS011;25333;50.762;4.470;2023-07-16T06:46:52;9.88;;;4.90;;
38972;SDS011;25333;50.762;4.470;2023-07-16T06:49:17;10.38;;;5.30;;
38972;SDS011;25333;50.762;4.470;2023-07-16T06:51:43;12.47;;;5.23;;
38972;SDS011;25333;50.762;4.470;2023-07-16T06:54:09;11.43;;;5.28;;
38972;SDS011;25333;50.762;4.470;2023-07-16T06:56:38;12.60;;;5.57;;
38972;SDS011;25333;50.762;4.470;2023-07-16T06:59:03;7.70;;;4.40;;
38972;SDS011;25333;50.762;4.470;2023-07-16T07:01:29;10.57;;;4.80;;
38972;SDS011;25333;50.762;4.470;2023-07-16T07:03:57;12.95;;;5.68;;
38972;SDS011;25333;50.762;4.470;2023-07-16T07:06:23;11.60;;;5.60;;
38972;SDS011;25333;50.762;4.470;2023-07-16T07:08:48;12.53;;;6.00;;
38972;SDS011;25333;50.762;4.470;2023-07-16T07:11:14;9.87;;;5.17;;
38972;SDS011;25333;50.762;4.470;2023-07-16T07:13:40;11.70;;;4.83;;
38972;SDS011;25333;50.762;4.470;2023-07-16T07:16:05;12.70;;;6.45;;
38972;SDS011;25333;50.762;4.470;2023-07-16T07:18:31;12.65;;;5.13;;
38972;SDS011;25333;50.762;4.470;2023-07-16T07:20:56;11.75;;;5.30;;
38972;SDS011;25333;50.762;4.470;2023-07-16T07:23:22;11.77;;;5.93;;
38972;SDS011;25333;50.762;4.470;2023-07-16T07:25:49;11.67;;;4.70;;
38972;SDS011;25333;50.762;4.470;2023-07-16T07:28:16;10.02;;;5.45;;
38972;SDS011;25333;50.762;4.470;2023-07-16T07:30:41;11.45;;;5.45;;
38972;SDS011;25333;50.762;4.470;2023-07-16T07:33:07;11.63;;;5.27;;
38972;SDS011;25333;50.762;4.470;2023-07-16T07:35:33;10.83;;;5.13;;
38972;SDS011;25333;50.762;4.470;2023-07-16T07:37:58;9.73;;;5.57;;
38972;SDS011;25333;50.762;4.470;2023-07-16T07:40:24;8.05;;;4.63;;
38972;SDS011;25333;50.762;4.470;2023-07-16T07:42:51;10.88;;;5.05;;
38972;SDS011;25333;50.762;4.470;2023-07-16T07:45:16;9.23;;;5.33;;
38972;SDS011;25333;50.762;4.470;2023-07-16T07:47:42;11.30;;;5.37;;
38972;SDS011;25333;50.762;4.470;2023-07-16T07:50:08;12.10;;;5.10;;
38972;SDS011;25333;50.762;4.470;2023-07-16T07:52:34;10.75;;;5.10;;
38972;SDS011;25333;50.762;4.470;2023-07-16T07:54:59;9.27;;;4.57;;
38972;SDS011;25333;50.762;4.470;2023-07-16T07:57:29;10.90;;;4.78;;
38972;SDS011;25333;50.762;4.470;2023-07-16T07:59:54;9.32;;;4.57;;
38972;SDS011;25333;50.762;4.470;2023-07-16T08:02:22;9.30;;;4.07;;
38972;SDS011;25333;50.762;4.470;2023-07-16T08:04:50;11.20;;;4.33;;
38972;SDS011;25333;50.762;4.470;2023-07-16T08:07:20;8.23;;;4.38;;
38972;SDS011;25333;50.762;4.470;2023-07-16T08:09:46;7.13;;;4.78;;
38972;SDS011;25333;50.762;4.470;2023-07-16T08:12:13;9.80;;;5.00;;
38972;SDS011;25333;50.762;4.470;2023-07-16T08:14:39;12.20;;;4.43;;
38972;SDS011;25333;50.762;4.470;2023-07-16T08:17:06;9.30;;;4.10;;
38972;SDS011;25333;50.762;4.470;2023-07-16T08:19:32;9.50;;;4.78;;
38972;SDS011;25333;50.762;4.470;2023-07-16T08:22:01;8.53;;;4.43;;
38972;SDS011;25333;50.762;4.470;2023-07-16T08:24:27;8.77;;;4.65;;
38972;SDS011;25333;50.762;4.470;2023-07-16T08:26:53;12.30;;;5.03;;
38972;SDS011;25333;50.762;4.470;2023-07-16T08:29:18;10.38;;;4.22;;
38972;SDS011;25333;50.762;4.470;2023-07-16T08:31:44;12.07;;;4.77;;
38972;SDS011;25333;50.762;4.470;2023-07-16T08:34:10;8.50;;;3.80;;
38972;SDS011;25333;50.762;4.470;2023-07-16T08:36:36;6.43;;;3.83;;
38972;SDS011;25333;50.762;4.470;2023-07-16T08:39:03;7.18;;;4.15;;
38972;SDS011;25333;50.762;4.470;2023-07-16T08:41:28;8.77;;;4.43;;
38972;SDS011;25333;50.762;4.470;2023-07-16T08:43:55;8.85;;;4.00;;
38972;SDS011;25333;50.762;4.470;2023-07-16T08:46:21;8.23;;;3.85;;
38972;SDS011;25333;50.762;4.470;2023-07-16T08:48:47;8.18;;;4.90;;
38972;SDS011;25333;50.762;4.470;2023-07-16T08:51:14;7.18;;;3.40;;
38972;SDS011;25333;50.762;4.470;2023-07-16T08:53:40;9.35;;;4.15;;
38972;SDS011;25333;50.762;4.470;2023-07-16T08:56:06;6.87;;;3.63;;
38972;SDS011;25333;50.762;4.470;2023-07-16T08:58:37;7.47;;;3.58;;
38972;SDS011;25333;50.762;4.470;2023-07-16T09:01:04;6.85;;;3.55;;
38972;SDS011;25333;50.762;4.470;2023-07-16T09:03:30;7.47;;;3.22;;
38972;SDS011;25333;50.762;4.470;2023-07-16T09:05:56;5.57;;;3.53;;
38972;SDS011;25333;50.762;4.470;2023-07-16T09:08:22;6.87;;;3.63;;
38972;SDS011;25333;50.762;4.470;2023-07-16T09:10:56;8.32;;;3.78;;
38972;SDS011;25333;50.762;4.470;2023-07-16T09:13:23;11.23;;;4.38;;
38972;SDS011;25333;50.762;4.470;2023-07-16T09:15:57;8.15;;;3.80;;
38972;SDS011;25333;50.762;4.470;2023-07-16T09:18:24;8.13;;;3.60;;
38972;SDS011;25333;50.762;4.470;2023-07-16T09:20:58;10.82;;;4.47;;
38972;SDS011;25333;50.762;4.470;2023-07-16T09:23:27;8.88;;;4.18;;
38972;SDS011;25333;50.762;4.470;2023-07-16T09:25:54;10.80;;;4.18;;
38972;SDS011;25333;50.762;4.470;2023-07-16T09:28:20;5.67;;;2.97;;
38972;SDS011;25333;50.762;4.470;2023-07-16T09:30:46;7.55;;;3.45;;
38972;SDS011;25333;50.762;4.470;2023-07-16T09:33:22;7.45;;;4.03;;
38972;SDS011;25333;50.762;4.470;2023-07-16T09:35:51;6.90;;;3.90;;
38972;SDS011;25333;50.762;4.470;2023-07-16T09:38:17;8.20;;;3.55;;
38972;SDS011;25333;50.762;4.470;2023-07-16T09:40:43;9.48;;;3.53;;
38972;SDS011;25333;50.762;4.470;2023-07-16T09:43:12;8.43;;;3.85;;
38972;SDS011;25333;50.762;4.470;2023-07-16T09:45:38;6.45;;;3.53;;
38972;SDS011;25333;50.762;4.470;2023-07-16T09:48:04;5.65;;;3.60;;
38972;SDS011;25333;50.762;4.470;2023-07-16T09:50:34;7.18;;;3.33;;
38972;SDS011;25333;50.762;4.470;2023-07-16T09:53:00;6.35;;;3.17;;
38972;SDS011;25333;50.762;4.470;2023-07-16T09:55:28;8.30;;;3.72;;
38972;SDS011;25333;50.762;4.470;2023-07-16T09:57:57;7.75;;;3.75;;
38972;SDS011;25333;50.762;4.470;2023-07-16T10:00:24;10.13;;;4.18;;
38972;SDS011;25333;50.762;4.470;2023-07-16T10:02:51;7.78;;;3.10;;
38972;SDS011;25333;50.762;4.470;2023-07-16T10:05:18;7.50;;;3.15;;
38972;SDS011;25333;50.762;4.470;2023-07-16T10:07:51;9.40;;;3.33;;
38972;SDS011;25333;50.762;4.470;2023-07-16T10:10:18;7.35;;;3.30;;
38972;SDS011;25333;50.762;4.470;2023-07-16T10:12:58;7.20;;;3.40;;
38972;SDS011;25333;50.762;4.470;2023-07-16T10:15:27;5.50;;;2.88;;
38972;SDS011;25333;50.762;4.470;2023-07-16T10:17:56;7.00;;;2.13;;
38972;SDS011;25333;50.762;4.470;2023-07-16T10:20:29;7.47;;;3.10;;
38972;SDS011;25333;50.762;4.470;2023-07-16T10:22:56;4.35;;;2.38;;
38972;SDS011;25333;50.762;4.470;2023-07-16T10:25:22;6.38;;;3.00;;
38972;SDS011;25333;50.762;4.470;2023-07-16T10:27:51;7.80;;;3.35;;
38972;SDS011;25333;50.762;4.470;2023-07-16T10:30:17;6.20;;;2.67;;
38972;SDS011;25333;50.762;4.470;2023-07-16T10:32:44;5.78;;;2.90;;
38972;SDS011;25333;50.762;4.470;2023-07-16T10:35:10;6.22;;;3.33;;
38972;SDS011;25333;50.762;4.470;2023-07-16T10:37:36;9.20;;;2.92;;
38972;SDS011;25333;50.762;4.470;2023-07-16T10:40:03;6.03;;;2.70;;
38972;SDS011;25333;50.762;4.470;2023-07-16T10:42:29;6.20;;;2.88;;
38972;SDS011;25333;50.762;4.470;2023-07-16T10:44:59;5.93;;;2.78;;
38972;SDS011;25333;50.762;4.470;2023-07-16T10:47:36;5.17;;;2.33;;
38972;SDS011;25333;50.762;4.470;2023-07-16T10:50:15;4.68;;;2.47;;
38972;SDS011;25333;50.762;4.470;2023-07-16T10:52:41;6.95;;;3.00;;
38972;SDS011;25333;50.762;4.470;2023-07-16T10:55:06;5.10;;;2.90;;
38972;SDS011;25333;50.762;4.470;2023-07-16T10:57:32;7.03;;;3.47;;
38972;SDS011;25333;50.762;4.470;2023-07-16T10:59:58;7.47;;;3.20;;
38972;SDS011;25333;50.762;4.470;2023-07-16T11:02:25;6.72;;;3.20;;
38972;SDS011;25333;50.762;4.470;2023-07-16T11:04:51;6.60;;;2.87;;
38972;SDS011;25333;50.762;4.470;2023-07-16T11:07:22;6.38;;;2.95;;
38972;SDS011;25333;50.762;4.470;2023-07-16T11:09:49;6.20;;;2.72;;
38972;SDS011;25333;50.762;4.470;2023-07-16T11:12:16;8.90;;;3.50;;
38972;SDS011;25333;50.762;4.470;2023-07-16T11:14:48;7.13;;;3.15;;
38972;SDS011;25333;50.762;4.470;2023-07-16T11:17:15;6.22;;;2.70;;
38972;SDS011;25333;50.762;4.470;2023-07-16T11:19:44;5.80;;;3.33;;
38972;SDS011;25333;50.762;4.470;2023-07-16T11:22:10;6.43;;;2.50;;
38972;SDS011;25333;50.762;4.470;2023-07-16T11:24:42;6.35;;;2.83;;
38972;SDS011;25333;50.762;4.470;2023-07-16T11:27:15;4.20;;;2.72;;
38972;SDS011;25333;50.762;4.470;2023-07-16T11:29:45;7.70;;;2.63;;
38972;SDS011;25333;50.762;4.470;2023-07-16T11:32:12;6.65;;;2.95;;
38972;SDS011;25333;50.762;4.470;2023-07-16T11:34:38;5.40;;;2.33;;
38972;SDS011;25333;50.762;4.470;2023-07-16T11:37:16;5.47;;;2.85;;
38972;SDS011;25333;50.762;4.470;2023-07-16T11:39:42;5.95;;;2.78;;
38972;SDS011;25333;50.762;4.470;2023-07-16T11:42:08;6.70;;;2.38;;
38972;SDS011;25333;50.762;4.470;2023-07-16T11:44:34;7.40;;;3.17;;
38972;SDS011;25333;50.762;4.470;2023-07-16T11:47:03;5.97;;;2.80;;
38972;SDS011;25333;50.762;4.470;2023-07-16T11:49:29;4.95;;;2.47;;
38972;SDS011;25333;50.762;4.470;2023-07-16T11:51:55;3.67;;;1.65;;
38972;SDS011;25333;50.762;4.470;2023-07-16T11:54:24;4.13;;;2.10;;
38972;SDS011;25333;50.762;4.470;2023-07-16T11:56:52;4.70;;;2.10;;
38972;SDS011;25333;50.762;4.470;2023-07-16T11:59:18;7.50;;;2.95;;
38972;SDS011;25333;50.762;4.470;2023-07-16T12:01:46;5.73;;;2.43;;
38972;SDS011;25333;50.762;4.470;2023-07-16T12:04:13;7.28;;;3.00;;
38972;SDS011;25333;50.762;4.470;2023-07-16T12:06:40;5.80;;;2.17;;
38972;SDS011;25333;50.762;4.470;2023-07-16T12:09:05;5.67;;;1.90;;
38972;SDS011;25333;50.762;4.470;2023-07-16T12:11:31;5.30;;;2.50;;
38972;SDS011;25333;50.762;4.470;2023-07-16T12:13:57;7.18;;;3.45;;
38972;SDS011;25333;50.762;4.470;2023-07-16T12:16:22;4.93;;;1.97;;
38972;SDS011;25333;50.762;4.470;2023-07-16T12:18:48;7.05;;;3.03;;
38972;SDS011;25333;50.762;4.470;2023-07-16T12:21:13;6.82;;;2.45;;
38972;SDS011;25333;50.762;4.470;2023-07-16T12:23:39;4.43;;;2.13;;
38972;SDS011;25333;50.762;4.470;2023-07-16T12:26:07;7.82;;;2.08;;
38972;SDS011;25333;50.762;4.470;2023-07-16T12:28:33;4.85;;;2.03;;
38972;SDS011;25333;50.762;4.470;2023-07-16T12:30:59;4.80;;;2.00;;
38972;SDS011;25333;50.762;4.470;2023-07-16T12:33:25;8.70;;;2.40;;
38972;SDS011;25333;50.762;4.470;2023-07-16T12:35:50;6.82;;;2.33;;
38972;SDS011;25333;50.762;4.470;2023-07-16T12:38:16;6.20;;;2.80;;
38972;SDS011;25333;50.762;4.470;2023-07-16T12:40:42;4.50;;;2.23;;
38972;SDS011;25333;50.762;4.470;2023-07-16T12:43:10;5.85;;;1.92;;
38972;SDS011;25333;50.762;4.470;2023-07-16T12:45:36;5.67;;;2.27;;
38972;SDS011;25333;50.762;4.470;2023-07-16T12:48:02;6.63;;;2.43;;
38972;SDS011;25333;50.762;4.470;2023-07-16T12:50:28;3.67;;;2.13;;
38972;SDS011;25333;50.762;4.470;2023-07-16T12:52:54;6.10;;;2.47;;
38972;SDS011;25333;50.762;4.470;2023-07-16T12:55:20;3.80;;;2.10;;
38972;SDS011;25333;50.762;4.470;2023-07-16T12:57:46;3.33;;;2.13;;
38972;SDS011;25333;50.762;4.470;2023-07-16T13:00:11;6.43;;;2.10;;
38972;SDS011;25333;50.762;4.470;2023-07-16T13:02:38;6.87;;;1.97;;
38972;SDS011;25333;50.762;4.470;2023-07-16T13:05:04;5.40;;;1.98;;
38972;SDS011;25333;50.762;4.470;2023-07-16T13:07:30;5.10;;;1.98;;
38972;SDS011;25333;50.762;4.470;2023-07-16T13:09:57;3.72;;;1.58;;
38972;SDS011;25333;50.762;4.470;2023-07-16T13:12:23;4.68;;;1.75;;
38972;SDS011;25333;50.762;4.470;2023-07-16T13:14:48;4.72;;;1.92;;
38972;SDS011;25333;50.762;4.470;2023-07-16T13:17:17;4.03;;;1.83;;
38972;SDS011;25333;50.762;4.470;2023-07-16T13:19:44;4.85;;;2.05;;
38972;SDS011;25333;50.762;4.470;2023-07-16T13:22:10;5.23;;;2.13;;
38972;SDS011;25333;50.762;4.470;2023-07-16T13:24:36;4.83;;;1.47;;
38972;SDS011;25333;50.762;4.470;2023-07-16T13:27:05;4.27;;;1.90;;
38972;SDS011;25333;50.762;4.470;2023-07-16T13:29:30;5.55;;;1.77;;
38972;SDS011;25333;50.762;4.470;2023-07-16T13:31:56;7.85;;;4.15;;
38972;SDS011;25333;50.762;4.470;2023-07-16T13:34:22;4.13;;;1.38;;
38972;SDS011;25333;50.762;4.470;2023-07-16T13:36:47;5.40;;;1.80;;
38972;SDS011;25333;50.762;4.470;2023-07-16T13:39:13;4.83;;;1.90;;
38972;SDS011;25333;50.762;4.470;2023-07-16T13:41:39;4.00;;;1.50;;
38972;SDS011;25333;50.762;4.470;2023-07-16T13:44:04;3.80;;;1.75;;
38972;SDS011;25333;50.762;4.470;2023-07-16T13:46:33;4.93;;;1.70;;
38972;SDS011;25333;50.762;4.470;2023-07-16T13:48:59;4.47;;;1.85;;
38972;SDS011;25333;50.762;4.470;2023-07-16T13:51:25;4.32;;;1.52;;
38972;SDS011;25333;50.762;4.470;2023-07-16T13:53:51;4.65;;;1.95;;
38972;SDS011;25333;50.762;4.470;2023-07-16T13:56:17;2.78;;;1.77;;
38972;SDS011;25333;50.762;4.470;2023-07-16T13:58:42;3.30;;;1.63;;
38972;SDS011;25333;50.762;4.470;2023-07-16T14:01:08;5.10;;;1.50;;
38972;SDS011;25333;50.762;4.470;2023-07-16T14:03:37;5.55;;;1.52;;
38972;SDS011;25333;50.762;4.470;2023-07-16T14:06:10;3.90;;;1.00;;
38972;SDS011;25333;50.762;4.470;2023-07-16T14:08:39;4.53;;;1.23;;
38972;SDS011;25333;50.762;4.470;2023-07-16T14:11:10;3.30;;;1.20;;
38972;SDS011;25333;50.762;4.470;2023-07-16T14:13:36;6.47;;;1.60;;
38972;SDS011;25333;50.762;4.470;2023-07-16T14:16:02;3.70;;;1.50;;
38972;SDS011;25333;50.762;4.470;2023-07-16T14:18:31;3.33;;;1.30;;
38972;SDS011;25333;50.762;4.470;2023-07-16T14:20:56;3.42;;;1.63;;
38972;SDS011;25333;50.762;4.470;2023-07-16T14:23:22;5.47;;;1.70;;
38972;SDS011;25333;50.762;4.470;2023-07-16T14:25:48;4.25;;;1.10;;
38972;SDS011;25333;50.762;4.470;2023-07-16T14:28:14;3.87;;;1.67;;
38972;SDS011;25333;50.762;4.470;2023-07-16T14:30:39;4.03;;;0.93;;
38972;SDS011;25333;50.762;4.470;2023-07-16T14:33:05;4.22;;;1.35;;
38972;SDS011;25333;50.762;4.470;2023-07-16T14:35:32;4.28;;;1.38;;
38972;SDS011;25333;50.762;4.470;2023-07-16T14:37:58;3.80;;;1.40;;
38972;SDS011;25333;50.762;4.470;2023-07-16T14:40:24;4.17;;;1.40;;
38972;SDS011;25333;50.762;4.470;2023-07-16T14:42:51;3.72;;;1.63;;
38972;SDS011;25333;50.762;4.470;2023-07-16T14:45:16;3.37;;;1.50;;
38972;SDS011;25333;50.762;4.470;2023-07-16T14:47:42;4.15;;;1.30;;
38972;SDS011;25333;50.762;4.470;2023-07-16T14:50:08;3.63;;;1.42;;
38972;SDS011;25333;50.762;4.470;2023-07-16T14:52:34;3.80;;;1.50;;